Hlavní strana
METAR-TAF:

METAR-TAF

Letiště :

Ushuaia, Argentina

zeměpisná šířka: 54-48S, zeměpisná délka: 068-19W, výška: 16 m

Aktuální stav počasí

Zpráva byla vytvořena před 1 hodinou a 14 minutami, v 22:00 UTC
Jihozápadní vítr 14 kt s nárazy do 31 kt
Teplota 3°C
Vlhkost vzduchu 81%
Tlak 983 hPa
Viditelnost 10 km a více
Skoro jasno ve výšce 1200 ft
Polojasno ve výšce 2500 ft
Oblačno až skoro zataženo ve výšce 4500 ft
přeháňky v blízkosti

METAR: SAWH 182200Z 23014G31KT 9999 VCSH FEW012 SCT025 BKN045 03/00 Q0983

Čas: 20:14 (23:14 UTC)

Předpověď počasí

Zpráva byla vytvořena před 6 hodinami a 14 minutami, v 17:00 UTC
Předpověď platná od 18 v 18 UTC do 19 v 18 UTC
Severozápadní vítr 20 kt s nárazy do 30 kt
Viditelnost 10 km a více
Oblačno až skoro zataženo ve výšce 4000 ft
Oblačno až skoro zataženo ve výšce 6000 ft
Dočasný
od 18 v 17 UTC do 18 v 20 UTC
Západoseverozápadní vítr 35 kt s nárazy do 45 kt

TAF: SAWH 181700Z 1818/1918 32020G30KT 9999 BKN040 BKN060 TX07/1818Z TNM01/1910Z TEMPO 1817/1820 29035G45KT

Stav a předpovědi počasí z více než 4 000 letišť (zprávy METAR a TAF).

Červené a žluté tečky na mapě představují dostupné meteorologické stanice.

Když kurzor umístíte na tečku, zobrazí se název stanice.

Pak kliknutím zobrazíte stav a předpověď počasí.

Chcete-li změnit mapu, kliknutím na zelené tlačítko se znaménkem +mapu přiblížíte, kliknutím na zelené tlačítko se znaménkem – mapu oddálíte a kliknutím na zelené šipky přejdete na sousední mapy.


METAR-TAF: